sensor_id;sensor_type;location;lat;lon;timestamp;pressure;altitude;pressure_sealevel;temperature;humidity
12626;BME280;6378;42.684;23.372;2023-02-01T00:01:44;95127.19;;;2.08;100.00
12626;BME280;6378;42.684;23.372;2023-02-01T00:04:09;95171.03;;;2.25;100.00
12626;BME280;6378;42.684;23.372;2023-02-01T00:06:35;95165.50;;;2.21;100.00
12626;BME280;6378;42.684;23.372;2023-02-01T00:09:00;95167.44;;;2.15;100.00
12626;BME280;6378;42.684;23.372;2023-02-01T00:11:26;95169.72;;;2.22;100.00
12626;BME280;6378;42.684;23.372;2023-02-01T00:13:52;95179.56;;;2.22;100.00
12626;BME280;6378;42.684;23.372;2023-02-01T00:16:20;95165.22;;;2.23;100.00
12626;BME280;6378;42.684;23.372;2023-02-01T00:18:47;95163.72;;;2.16;100.00
12626;BME280;6378;42.684;23.372;2023-02-01T00:21:14;95169.72;;;2.22;100.00
12626;BME280;6378;42.684;23.372;2023-02-01T00:23:41;95164.16;;;2.24;100.00
12626;BME280;6378;42.684;23.372;2023-02-01T00:26:14;95168.88;;;2.27;100.00
12626;BME280;6378;42.684;23.372;2023-02-01T00:28:40;95165.72;;;2.25;100.00
12626;BME280;6378;42.684;23.372;2023-02-01T00:31:06;95164.06;;;2.29;100.00
12626;BME280;6378;42.684;23.372;2023-02-01T00:33:31;95165.94;;;2.28;100.00
12626;BME280;6378;42.684;23.372;2023-02-01T00:35:58;95165.84;;;2.33;100.00
12626;BME280;6378;42.684;23.372;2023-02-01T00:38:25;95157.91;;;2.14;100.00
12626;BME280;6378;42.684;23.372;2023-02-01T00:40:50;95160.19;;;2.21;100.00
12626;BME280;6378;42.684;23.372;2023-02-01T00:43:16;95158.41;;;2.16;100.00
12626;BME280;6378;42.684;23.372;2023-02-01T00:45:41;95149.28;;;2.23;100.00
12626;BME280;6378;42.684;23.372;2023-02-01T00:48:06;95152.00;;;2.17;100.00
12626;BME280;6378;42.684;23.372;2023-02-01T00:50:32;95154.88;;;2.21;100.00
12626;BME280;6378;42.684;23.372;2023-02-01T00:52:57;95131.28;;;2.01;100.00
12626;BME280;6378;42.684;23.372;2023-02-01T00:55:23;95142.78;;;2.15;100.00
12626;BME280;6378;42.684;23.372;2023-02-01T00:57:48;95149.13;;;2.33;100.00
12626;BME280;6378;42.684;23.372;2023-02-01T01:00:14;95153.13;;;2.30;100.00
12626;BME280;6378;42.684;23.372;2023-02-01T01:02:41;95148.56;;;2.17;100.00
12626;BME280;6378;42.684;23.372;2023-02-01T01:05:07;95151.94;;;2.23;100.00
12626;BME280;6378;42.684;23.372;2023-02-01T01:07:32;95116.81;;;1.93;100.00
12626;BME280;6378;42.684;23.372;2023-02-01T01:09:57;95149.44;;;2.12;100.00
12626;BME280;6378;42.684;23.372;2023-02-01T01:12:23;95147.69;;;2.22;100.00
12626;BME280;6378;42.684;23.372;2023-02-01T01:14:48;95128.19;;;2.12;100.00
12626;BME280;6378;42.684;23.372;2023-02-01T01:17:14;95138.53;;;2.14;100.00
12626;BME280;6378;42.684;23.372;2023-02-01T01:19:39;95137.94;;;2.17;100.00
12626;BME280;6378;42.684;23.372;2023-02-01T01:22:04;95142.66;;;2.20;100.00
12626;BME280;6378;42.684;23.372;2023-02-01T01:24:30;95148.56;;;2.17;100.00
12626;BME280;6378;42.684;23.372;2023-02-01T01:26:55;95129.06;;;2.08;100.00
12626;BME280;6378;42.684;23.372;2023-02-01T01:29:21;95141.75;;;2.11;100.00
12626;BME280;6378;42.684;23.372;2023-02-01T01:31:46;95124.19;;;2.15;100.00
12626;BME280;6378;42.684;23.372;2023-02-01T01:34:12;95140.72;;;2.26;100.00
12626;BME280;6378;42.684;23.372;2023-02-01T01:36:37;95150.88;;;2.24;100.00
12626;BME280;6378;42.684;23.372;2023-02-01T01:39:02;95145.75;;;2.27;100.00
12626;BME280;6378;42.684;23.372;2023-02-01T01:41:30;95156.56;;;2.31;100.00
12626;BME280;6378;42.684;23.372;2023-02-01T01:44:02;95147.06;;;2.30;100.00
12626;BME280;6378;42.684;23.372;2023-02-01T01:49:05;95156.75;;;2.21;100.00
12626;BME280;6378;42.684;23.372;2023-02-01T01:51:37;95154.22;;;2.10;100.00
12626;BME280;6378;42.684;23.372;2023-02-01T01:57:00;95150.38;;;2.03;100.00
12626;BME280;6378;42.684;23.372;2023-02-01T01:59:27;95150.25;;;1.94;100.00
12626;BME280;6378;42.684;23.372;2023-02-01T02:01:56;95153.19;;;1.93;100.00
12626;BME280;6378;42.684;23.372;2023-02-01T02:04:22;95138.25;;;1.78;100.00
12626;BME280;6378;42.684;23.372;2023-02-01T02:09:21;95145.94;;;1.80;100.00
12626;BME280;6378;42.684;23.372;2023-02-01T02:11:46;95129.56;;;1.54;100.00
12626;BME280;6378;42.684;23.372;2023-02-01T02:14:13;95151.25;;;1.61;100.00
12626;BME280;6378;42.684;23.372;2023-02-01T02:22:31;95125.47;;;1.43;100.00
12626;BME280;6378;42.684;23.372;2023-02-01T02:28:31;95102.72;;;1.18;100.00
12626;BME280;6378;42.684;23.372;2023-02-01T02:31:23;95139.94;;;1.32;100.00
12626;BME280;6378;42.684;23.372;2023-02-01T02:48:16;95133.72;;;1.41;100.00
12626;BME280;6378;42.684;23.372;2023-02-01T02:50:51;95136.94;;;1.38;100.00
12626;BME280;6378;42.684;23.372;2023-02-01T02:56:40;95125.66;;;1.27;100.00
12626;BME280;6378;42.684;23.372;2023-02-01T02:59:26;95125.72;;;1.22;100.00
12626;BME280;6378;42.684;23.372;2023-02-01T03:02:13;95122.75;;;1.29;100.00
12626;BME280;6378;42.684;23.372;2023-02-01T03:04:59;95142.91;;;1.49;100.00
12626;BME280;6378;42.684;23.372;2023-02-01T03:13:16;95147.69;;;1.47;100.00
12626;BME280;6378;42.684;23.372;2023-02-01T03:16:00;95151.53;;;1.59;100.00
12626;BME280;6378;42.684;23.372;2023-02-01T03:21:09;95151.66;;;1.68;100.00
12626;BME280;6378;42.684;23.372;2023-02-01T03:23:36;95146.28;;;1.54;100.00
12626;BME280;6378;42.684;23.372;2023-02-01T03:26:05;95153.97;;;1.56;100.00
12626;BME280;6378;42.684;23.372;2023-02-01T03:28:34;95143.47;;;1.46;100.00
12626;BME280;6378;42.684;23.372;2023-02-01T03:31:01;95157.56;;;1.65;100.00
12626;BME280;6378;42.684;23.372;2023-02-01T03:33:28;95166.50;;;1.69;100.00
12626;BME280;6378;42.684;23.372;2023-02-01T03:41:27;95175.25;;;1.69;100.00
12626;BME280;6378;42.684;23.372;2023-02-01T03:46:45;95165.53;;;1.84;100.00
12626;BME280;6378;42.684;23.372;2023-02-01T03:49:18;95167.44;;;1.78;100.00
12626;BME280;6378;42.684;23.372;2023-02-01T03:51:46;95164.66;;;1.88;100.00
12626;BME280;6378;42.684;23.372;2023-02-01T03:54:15;95169.09;;;2.11;100.00
12626;BME280;6378;42.684;23.372;2023-02-01T03:56:43;95175.19;;;2.12;100.00
12626;BME280;6378;42.684;23.372;2023-02-01T03:59:10;95155.63;;;1.89;100.00
12626;BME280;6378;42.684;23.372;2023-02-01T04:01:36;95163.94;;;2.01;100.00
12626;BME280;6378;42.684;23.372;2023-02-01T04:04:01;95168.38;;;1.87;100.00
12626;BME280;6378;42.684;23.372;2023-02-01T04:06:26;95171.63;;;1.84;100.00
12626;BME280;6378;42.684;23.372;2023-02-01T04:08:52;95167.38;;;1.83;100.00
12626;BME280;6378;42.684;23.372;2023-02-01T04:11:17;95169.97;;;1.88;100.00
12626;BME280;6378;42.684;23.372;2023-02-01T04:13:43;95167.94;;;2.17;100.00
12626;BME280;6378;42.684;23.372;2023-02-01T04:16:09;95153.41;;;2.15;100.00
12626;BME280;6378;42.684;23.372;2023-02-01T04:18:34;95154.94;;;2.16;100.00
12626;BME280;6378;42.684;23.372;2023-02-01T04:21:00;95165.66;;;2.11;100.00
12626;BME280;6378;42.684;23.372;2023-02-01T04:23:27;95166.59;;;2.01;100.00
12626;BME280;6378;42.684;23.372;2023-02-01T04:25:53;95164.50;;;1.98;100.00
12626;BME280;6378;42.684;23.372;2023-02-01T04:28:18;95165.03;;;2.00;100.00
12626;BME280;6378;42.684;23.372;2023-02-01T04:30:45;95166.09;;;1.99;100.00
12626;BME280;6378;42.684;23.372;2023-02-01T04:33:11;95173.13;;;1.90;100.00
12626;BME280;6378;42.684;23.372;2023-02-01T04:35:39;95188.19;;;1.95;100.00
12626;BME280;6378;42.684;23.372;2023-02-01T04:38:04;95170.97;;;1.92;100.00
12626;BME280;6378;42.684;23.372;2023-02-01T04:40:30;95176.78;;;1.94;100.00
12626;BME280;6378;42.684;23.372;2023-02-01T04:42:55;95165.50;;;2.02;100.00
12626;BME280;6378;42.684;23.372;2023-02-01T04:45:21;95163.94;;;2.01;100.00
12626;BME280;6378;42.684;23.372;2023-02-01T04:47:46;95175.53;;;2.05;100.00
12626;BME280;6378;42.684;23.372;2023-02-01T04:50:14;95015.69;;;1.06;100.00
12626;BME280;6378;42.684;23.372;2023-02-01T04:52:40;95172.81;;;2.10;100.00
12626;BME280;6378;42.684;23.372;2023-02-01T04:55:06;95168.59;;;2.09;100.00
12626;BME280;6378;42.684;23.372;2023-02-01T04:57:32;95178.56;;;2.17;100.00
12626;BME280;6378;42.684;23.372;2023-02-01T04:59:57;95165.44;;;2.07;100.00
12626;BME280;6378;42.684;23.372;2023-02-01T05:02:23;95168.03;;;2.12;100.00
12626;BME280;6378;42.684;23.372;2023-02-01T05:04:48;95181.66;;;2.25;100.00
12626;BME280;6378;42.684;23.372;2023-02-01T05:07:14;95185.06;;;2.25;100.00
12626;BME280;6378;42.684;23.372;2023-02-01T05:09:39;95190.19;;;2.22;100.00
12626;BME280;6378;42.684;23.372;2023-02-01T05:12:05;95195.00;;;2.20;100.00
12626;BME280;6378;42.684;23.372;2023-02-01T05:14:48;95210.63;;;2.21;100.00
12626;BME280;6378;42.684;23.372;2023-02-01T05:17:14;95211.06;;;2.28;100.00
12626;BME280;6378;42.684;23.372;2023-02-01T05:19:39;95205.97;;;2.32;100.00
12626;BME280;6378;42.684;23.372;2023-02-01T05:22:05;95211.44;;;2.22;100.00
12626;BME280;6378;42.684;23.372;2023-02-01T05:24:30;95200.31;;;2.20;100.00
12626;BME280;6378;42.684;23.372;2023-02-01T05:26:56;95203.31;;;2.13;100.00
12626;BME280;6378;42.684;23.372;2023-02-01T05:29:21;95199.59;;;2.14;100.00
12626;BME280;6378;42.684;23.372;2023-02-01T05:31:47;95197.06;;;2.23;100.00
12626;BME280;6378;42.684;23.372;2023-02-01T05:34:14;95185.03;;;2.11;100.00
12626;BME280;6378;42.684;23.372;2023-02-01T05:36:39;95187.31;;;2.18;100.00
12626;BME280;6378;42.684;23.372;2023-02-01T05:39:05;95213.94;;;2.32;100.00
12626;BME280;6378;42.684;23.372;2023-02-01T05:41:31;95202.53;;;2.31;100.00
12626;BME280;6378;42.684;23.372;2023-02-01T05:43:56;95184.59;;;2.23;100.00
12626;BME280;6378;42.684;23.372;2023-02-01T05:46:22;95209.91;;;2.53;100.00
12626;BME280;6378;42.684;23.372;2023-02-01T05:48:47;95204.78;;;2.56;100.00
12626;BME280;6378;42.684;23.372;2023-02-01T05:51:12;95207.31;;;2.48;100.00
12626;BME280;6378;42.684;23.372;2023-02-01T05:53:38;95195.38;;;2.45;100.00
12626;BME280;6378;42.684;23.372;2023-02-01T05:56:04;95203.91;;;2.61;100.00
12626;BME280;6378;42.684;23.372;2023-02-01T05:58:29;95203.03;;;2.66;100.00
12626;BME280;6378;42.684;23.372;2023-02-01T06:00:55;95214.81;;;2.78;100.00
12626;BME280;6378;42.684;23.372;2023-02-01T06:03:20;95214.03;;;2.91;100.00
12626;BME280;6378;42.684;23.372;2023-02-01T06:05:47;95208.47;;;2.74;100.00
12626;BME280;6378;42.684;23.372;2023-02-01T06:08:13;95215.00;;;2.82;100.00
12626;BME280;6378;42.684;23.372;2023-02-01T06:10:39;95191.06;;;2.68;100.00
12626;BME280;6378;42.684;23.372;2023-02-01T06:13:05;95214.22;;;2.81;100.00
12626;BME280;6378;42.684;23.372;2023-02-01T06:15:30;95209.88;;;2.85;100.00
12626;BME280;6378;42.684;23.372;2023-02-01T06:17:56;95202.78;;;2.81;100.00
12626;BME280;6378;42.684;23.372;2023-02-01T06:20:22;95209.88;;;2.85;100.00
12626;BME280;6378;42.684;23.372;2023-02-01T06:22:47;95211.47;;;2.86;100.00
12626;BME280;6378;42.684;23.372;2023-02-01T06:25:13;95210.69;;;2.86;100.00
12626;BME280;6378;42.684;23.372;2023-02-01T06:27:38;95206.75;;;2.83;100.00
12626;BME280;6378;42.684;23.372;2023-02-01T06:30:05;95212.38;;;2.95;100.00
12626;BME280;6378;42.684;23.372;2023-02-01T06:32:31;95201.22;;;2.93;100.00
12626;BME280;6378;42.684;23.372;2023-02-01T06:34:57;95196.13;;;2.83;100.00
12626;BME280;6378;42.684;23.372;2023-02-01T06:37:23;95183.41;;;2.80;100.00
12626;BME280;6378;42.684;23.372;2023-02-01T06:39:50;95218.19;;;2.97;100.00
12626;BME280;6378;42.684;23.372;2023-02-01T06:42:15;95196.94;;;2.97;100.00
12626;BME280;6378;42.684;23.372;2023-02-01T06:44:41;95222.66;;;3.16;100.00
12626;BME280;6378;42.684;23.372;2023-02-01T06:47:06;95221.56;;;3.17;100.00
12626;BME280;6378;42.684;23.372;2023-02-01T06:49:32;95232.50;;;3.15;100.00
12626;BME280;6378;42.684;23.372;2023-02-01T06:51:57;95221.44;;;3.08;100.00
12626;BME280;6378;42.684;23.372;2023-02-01T06:54:26;95238.09;;;3.14;100.00
12626;BME280;6378;42.684;23.372;2023-02-01T06:56:52;95244.31;;;3.23;100.00
12626;BME280;6378;42.684;23.372;2023-02-01T06:59:17;95240.81;;;3.27;100.00
12626;BME280;6378;42.684;23.372;2023-02-01T07:01:43;95240.69;;;3.32;100.00
12626;BME280;6378;42.684;23.372;2023-02-01T07:04:11;95240.81;;;3.27;100.00
12626;BME280;6378;42.684;23.372;2023-02-01T07:06:36;95244.91;;;3.20;100.00
12626;BME280;6378;42.684;23.372;2023-02-01T07:09:02;95251.31;;;3.19;100.00
12626;BME280;6378;42.684;23.372;2023-02-01T07:11:27;95240.75;;;3.14;100.00
12626;BME280;6378;42.684;23.372;2023-02-01T07:13:53;95254.97;;;3.23;100.00
12626;BME280;6378;42.684;23.372;2023-02-01T07:16:19;95254.09;;;3.27;100.00
12626;BME280;6378;42.684;23.372;2023-02-01T07:18:45;95252.34;;;3.36;100.00
12626;BME280;6378;42.684;23.372;2023-02-01T07:21:11;95264.94;;;3.44;100.00
12626;BME280;6378;42.684;23.372;2023-02-01T07:23:37;95268.25;;;3.23;100.00
12626;BME280;6378;42.684;23.372;2023-02-01T07:26:04;95256.84;;;3.22;100.00
12626;BME280;6378;42.684;23.372;2023-02-01T07:28:32;95281.19;;;3.43;100.00
12626;BME280;6378;42.684;23.372;2023-02-01T07:31:30;95271.06;;;3.45;100.00
12626;BME280;6378;42.684;23.372;2023-02-01T07:33:55;95243.75;;;3.26;100.00
12626;BME280;6378;42.684;23.372;2023-02-01T07:36:22;95253.53;;;3.44;100.00
12626;BME280;6378;42.684;23.372;2023-02-01T07:38:48;95247.41;;;3.43;100.00
12626;BME280;6378;42.684;23.372;2023-02-01T07:41:14;95281.13;;;3.62;100.00
12626;BME280;6378;42.684;23.372;2023-02-01T07:43:40;95244.56;;;3.40;100.00
12626;BME280;6378;42.684;23.372;2023-02-01T07:46:05;95288.22;;;3.53;100.00
12626;BME280;6378;42.684;23.372;2023-02-01T07:48:32;95277.88;;;3.51;100.00
12626;BME280;6378;42.684;23.372;2023-02-01T07:51:02;95284.75;;;3.52;100.00
12626;BME280;6378;42.684;23.372;2023-02-01T07:53:29;95285.53;;;3.53;100.00
12626;BME280;6378;42.684;23.372;2023-02-01T07:55:55;95287.22;;;3.62;100.00
12626;BME280;6378;42.684;23.372;2023-02-01T07:58:22;95302.03;;;3.68;100.00
12626;BME280;6378;42.684;23.372;2023-02-01T08:00:47;95302.22;;;3.58;100.00
12626;BME280;6378;42.684;23.372;2023-02-01T08:03:31;95303.78;;;3.59;100.00
12626;BME280;6378;42.684;23.372;2023-02-01T08:05:56;95308.16;;;3.69;100.00
12626;BME280;6378;42.684;23.372;2023-02-01T08:08:22;95318.97;;;3.72;100.00
12626;BME280;6378;42.684;23.372;2023-02-01T08:10:48;95271.44;;;3.52;100.00
12626;BME280;6378;42.684;23.372;2023-02-01T08:13:14;95319.41;;;3.79;100.00
12626;BME280;6378;42.684;23.372;2023-02-01T08:15:39;95299.97;;;3.79;100.00
12626;BME280;6378;42.684;23.372;2023-02-01T08:18:05;95274.94;;;3.80;100.00
12626;BME280;6378;42.684;23.372;2023-02-01T08:20:30;95286.06;;;3.96;100.00
12626;BME280;6378;42.684;23.372;2023-02-01T08:22:56;95264.75;;;3.82;100.00
12626;BME280;6378;42.684;23.372;2023-02-01T08:25:22;95290.97;;;4.16;100.00
12626;BME280;6378;42.684;23.372;2023-02-01T08:27:48;95304.38;;;4.11;100.00
12626;BME280;6378;42.684;23.372;2023-02-01T08:30:14;95297.72;;;4.00;100.00
12626;BME280;6378;42.684;23.372;2023-02-01T08:32:39;95310.13;;;4.18;99.57
12626;BME280;6378;42.684;23.372;2023-02-01T08:35:05;95305.75;;;4.22;97.77
12626;BME280;6378;42.684;23.372;2023-02-01T08:37:31;95270.28;;;3.99;96.61
12626;BME280;6378;42.684;23.372;2023-02-01T08:39:56;95294.94;;;4.18;94.90
12626;BME280;6378;42.684;23.372;2023-02-01T08:42:22;95307.75;;;4.30;95.27
12626;BME280;6378;42.684;23.372;2023-02-01T08:45:06;95297.56;;;4.32;93.57
12626;BME280;6378;42.684;23.372;2023-02-01T08:47:33;95307.41;;;4.45;91.71
12626;BME280;6378;42.684;23.372;2023-02-01T08:49:59;95292.59;;;4.53;90.40
12626;BME280;6378;42.684;23.372;2023-02-01T08:52:24;95295.22;;;4.66;86.89
12626;BME280;6378;42.684;23.372;2023-02-01T08:54:49;95300.81;;;4.78;82.80
12626;BME280;6378;42.684;23.372;2023-02-01T08:57:15;95286.81;;;4.95;82.83
12626;BME280;6378;42.684;23.372;2023-02-01T08:59:40;95297.53;;;5.26;78.84
12626;BME280;6378;42.684;23.372;2023-02-01T09:02:08;95294.75;;;5.31;76.85
12626;BME280;6378;42.684;23.372;2023-02-01T09:04:37;95300.91;;;5.40;75.32
12626;BME280;6378;42.684;23.372;2023-02-01T09:07:02;95284.16;;;5.48;75.03
12626;BME280;6378;42.684;23.372;2023-02-01T09:09:28;95305.34;;;5.45;73.53
12626;BME280;6378;42.684;23.372;2023-02-01T09:11:53;95307.47;;;5.34;72.98
12626;BME280;6378;42.684;23.372;2023-02-01T09:14:19;95314.13;;;5.23;73.66
12626;BME280;6378;42.684;23.372;2023-02-01T09:16:44;95308.69;;;5.06;76.75
12626;BME280;6378;42.684;23.372;2023-02-01T09:19:10;95310.88;;;5.04;75.73
12626;BME280;6378;42.684;23.372;2023-02-01T09:21:35;95317.44;;;4.98;75.98
12626;BME280;6378;42.684;23.372;2023-02-01T09:24:01;95325.72;;;4.96;77.04
12626;BME280;6378;42.684;23.372;2023-02-01T09:26:26;95317.97;;;4.86;75.92
12626;BME280;6378;42.684;23.372;2023-02-01T09:28:52;95316.59;;;4.89;77.43
12626;BME280;6378;42.684;23.372;2023-02-01T09:31:18;95312.00;;;4.89;77.62
12626;BME280;6378;42.684;23.372;2023-02-01T09:33:44;95295.06;;;5.07;78.04
12626;BME280;6378;42.684;23.372;2023-02-01T09:36:09;95293.53;;;5.37;74.25
12626;BME280;6378;42.684;23.372;2023-02-01T09:38:35;95291.28;;;5.61;73.54
12626;BME280;6378;42.684;23.372;2023-02-01T09:41:00;95295.91;;;5.78;73.22
12626;BME280;6378;42.684;23.372;2023-02-01T09:48:31;95283.75;;;5.63;72.53
12626;BME280;6378;42.684;23.372;2023-02-01T09:50:59;95300.00;;;5.76;71.53
12626;BME280;6378;42.684;23.372;2023-02-01T09:53:30;95287.06;;;5.69;69.66
12626;BME280;6378;42.684;23.372;2023-02-01T09:58:39;95269.84;;;5.75;67.67
12626;BME280;6378;42.684;23.372;2023-02-01T10:01:16;95271.22;;;5.73;67.78
12626;BME280;6378;42.684;23.372;2023-02-01T10:03:43;95270.44;;;5.72;66.72
12626;BME280;6378;42.684;23.372;2023-02-01T10:06:33;95261.59;;;5.63;66.46
12626;BME280;6378;42.684;23.372;2023-02-01T10:09:06;95273.88;;;5.73;68.32
12626;BME280;6378;42.684;23.372;2023-02-01T10:22:41;95254.94;;;7.08;62.09
12626;BME280;6378;42.684;23.372;2023-02-01T10:25:17;95205.94;;;7.16;59.72
12626;BME280;6378;42.684;23.372;2023-02-01T10:27:48;95234.72;;;7.74;59.01
12626;BME280;6378;42.684;23.372;2023-02-01T10:30:39;95244.59;;;7.91;57.35
12626;BME280;6378;42.684;23.372;2023-02-01T10:35:46;95214.53;;;7.48;56.44
12626;BME280;6378;42.684;23.372;2023-02-01T10:38:20;95218.50;;;7.71;56.16
12626;BME280;6378;42.684;23.372;2023-02-01T10:40:48;95216.81;;;7.96;55.54
12626;BME280;6378;42.684;23.372;2023-02-01T10:43:13;95222.19;;;7.96;55.87
12626;BME280;6378;42.684;23.372;2023-02-01T10:45:39;95218.59;;;8.12;55.17
12626;BME280;6378;42.684;23.372;2023-02-01T10:48:07;95205.97;;;8.13;54.09
12626;BME280;6378;42.684;23.372;2023-02-01T10:54:18;95211.66;;;7.91;54.69
12626;BME280;6378;42.684;23.372;2023-02-01T10:56:38;95195.38;;;7.66;54.42
12626;BME280;6378;42.684;23.372;2023-02-01T10:59:18;95186.13;;;7.55;55.26
12626;BME280;6378;42.684;23.372;2023-02-01T11:01:46;95196.56;;;7.39;54.68
12626;BME280;6378;42.684;23.372;2023-02-01T11:04:16;95191.38;;;7.34;55.45
12626;BME280;6378;42.684;23.372;2023-02-01T11:06:45;95207.63;;;7.29;56.18
12626;BME280;6378;42.684;23.372;2023-02-01T11:09:19;95213.16;;;7.33;55.59
12626;BME280;6378;42.684;23.372;2023-02-01T11:14:16;95210.53;;;6.90;56.61
12626;BME280;6378;42.684;23.372;2023-02-01T11:16:51;95202.19;;;7.00;57.41
12626;BME280;6378;42.684;23.372;2023-02-01T11:19:17;95204.13;;;6.82;57.47
12626;BME280;6378;42.684;23.372;2023-02-01T11:21:44;95195.47;;;6.68;57.08
12626;BME280;6378;42.684;23.372;2023-02-01T11:24:33;95191.25;;;6.59;56.21
12626;BME280;6378;42.684;23.372;2023-02-01T11:27:03;95190.28;;;6.37;57.17
12626;BME280;6378;42.684;23.372;2023-02-01T11:29:36;95178.34;;;6.43;58.18
12626;BME280;6378;42.684;23.372;2023-02-01T11:32:03;95186.66;;;6.50;58.59
12626;BME280;6378;42.684;23.372;2023-02-01T11:34:44;95153.47;;;6.60;57.67
12626;BME280;6378;42.684;23.372;2023-02-01T11:37:23;95187.13;;;6.78;57.67
12626;BME280;6378;42.684;23.372;2023-02-01T11:40:01;95178.06;;;7.09;58.38
12626;BME280;6378;42.684;23.372;2023-02-01T11:42:27;95201.47;;;7.37;56.34
12626;BME280;6378;42.684;23.372;2023-02-01T11:45:25;95188.66;;;7.52;55.49
12626;BME280;6378;42.684;23.372;2023-02-01T11:47:52;95171.63;;;7.56;54.83
12626;BME280;6378;42.684;23.372;2023-02-01T11:50:37;95167.50;;;7.59;54.46
12626;BME280;6378;42.684;23.372;2023-02-01T11:53:20;95167.44;;;7.76;54.60
12626;BME280;6378;42.684;23.372;2023-02-01T11:56:11;95161.59;;;7.74;54.45
12626;BME280;6378;42.684;23.372;2023-02-01T12:06:52;95140.59;;;7.55;54.16
12626;BME280;6378;42.684;23.372;2023-02-01T12:09:34;95137.72;;;7.60;54.37
12626;BME280;6378;42.684;23.372;2023-02-01T12:39:31;95114.84;;;7.33;55.72
12626;BME280;6378;42.684;23.372;2023-02-01T12:44:47;95150.19;;;7.56;56.10
12626;BME280;6378;42.684;23.372;2023-02-01T12:47:19;95149.97;;;7.70;55.11
12626;BME280;6378;42.684;23.372;2023-02-01T12:52:21;95147.22;;;7.49;55.02
12626;BME280;6378;42.684;23.372;2023-02-01T12:55:15;95139.91;;;7.37;54.92
12626;BME280;6378;42.684;23.372;2023-02-01T12:57:46;95160.84;;;7.35;54.27
12626;BME280;6378;42.684;23.372;2023-02-01T13:00:40;95137.94;;;7.09;54.78
12626;BME280;6378;42.684;23.372;2023-02-01T13:05:57;95144.91;;;7.39;54.53
12626;BME280;6378;42.684;23.372;2023-02-01T13:11:06;95128.41;;;7.37;54.15
12626;BME280;6378;42.684;23.372;2023-02-01T13:13:46;95130.06;;;7.50;54.30
12626;BME280;6378;42.684;23.372;2023-02-01T13:16:26;95144.50;;;7.58;53.12
12626;BME280;6378;42.684;23.372;2023-02-01T13:19:02;95140.28;;;7.48;53.43
12626;BME280;6378;42.684;23.372;2023-02-01T13:21:33;95145.28;;;7.58;53.33
12626;BME280;6378;42.684;23.372;2023-02-01T13:23:59;95133.09;;;7.69;53.82
12626;BME280;6378;42.684;23.372;2023-02-01T13:26:25;95083.19;;;7.35;52.06
12626;BME280;6378;42.684;23.372;2023-02-01T13:28:55;95139.00;;;7.54;53.50
12626;BME280;6378;42.684;23.372;2023-02-01T13:39:19;95144.47;;;7.28;52.36
12626;BME280;6378;42.684;23.372;2023-02-01T13:44:45;95131.47;;;7.10;53.98
12626;BME280;6378;42.684;23.372;2023-02-01T13:47:25;95125.69;;;7.08;53.94
12626;BME280;6378;42.684;23.372;2023-02-01T13:49:53;95133.97;;;7.15;53.49
12626;BME280;6378;42.684;23.372;2023-02-01T13:55:23;95118.84;;;7.27;53.30
12626;BME280;6378;42.684;23.372;2023-02-01T13:57:52;95129.09;;;7.55;52.68
12626;BME280;6378;42.684;23.372;2023-02-01T14:00:35;95122.75;;;7.59;52.61
12626;BME280;6378;42.684;23.372;2023-02-01T14:31:32;95108.56;;;7.59;53.73
12626;BME280;6378;42.684;23.372;2023-02-01T14:34:02;95096.09;;;7.42;53.31
12626;BME280;6378;42.684;23.372;2023-02-01T14:36:40;95093.13;;;7.35;54.21
12626;BME280;6378;42.684;23.372;2023-02-01T14:39:19;95093.84;;;7.44;53.05
12626;BME280;6378;42.684;23.372;2023-02-01T14:41:46;95079.13;;;7.29;53.89
12626;BME280;6378;42.684;23.372;2023-02-01T14:44:21;95093.34;;;7.21;54.48
12626;BME280;6378;42.684;23.372;2023-02-01T14:52:41;95113.44;;;6.98;55.52
12626;BME280;6378;42.684;23.372;2023-02-01T14:55:24;95106.69;;;6.92;55.67
12626;BME280;6378;42.684;23.372;2023-02-01T14:57:52;95104.19;;;6.87;56.06
12626;BME280;6378;42.684;23.372;2023-02-01T15:00:26;95113.78;;;6.88;56.00
12626;BME280;6378;42.684;23.372;2023-02-01T15:02:54;95122.75;;;6.83;56.52
12626;BME280;6378;42.684;23.372;2023-02-01T15:07:55;95106.13;;;6.61;57.19
12626;BME280;6378;42.684;23.372;2023-02-01T15:10:22;95124.22;;;6.46;58.03
12626;BME280;6378;42.684;23.372;2023-02-01T15:12:48;95124.56;;;6.45;57.97
12626;BME280;6378;42.684;23.372;2023-02-01T15:15:23;95121.56;;;6.46;58.99
12626;BME280;6378;42.684;23.372;2023-02-01T15:17:57;95107.13;;;6.39;59.31
12626;BME280;6378;42.684;23.372;2023-02-01T15:20:41;95125.19;;;6.42;60.16
12626;BME280;6378;42.684;23.372;2023-02-01T15:23:16;95095.03;;;6.24;59.81
12626;BME280;6378;42.684;23.372;2023-02-01T15:25:45;95117.47;;;6.40;59.26
12626;BME280;6378;42.684;23.372;2023-02-01T15:28:15;95113.56;;;6.29;60.59
12626;BME280;6378;42.684;23.372;2023-02-01T15:31:01;95115.75;;;6.36;59.61
12626;BME280;6378;42.684;23.372;2023-02-01T15:33:28;95091.09;;;6.22;59.89
12626;BME280;6378;42.684;23.372;2023-02-01T15:35:55;95112.00;;;6.28;60.54
12626;BME280;6378;42.684;23.372;2023-02-01T15:41:14;95119.53;;;6.26;60.55
12626;BME280;6378;42.684;23.372;2023-02-01T15:46:22;95118.75;;;6.26;60.57
12626;BME280;6378;42.684;23.372;2023-02-01T15:48:49;95102.25;;;6.15;59.67
12626;BME280;6378;42.684;23.372;2023-02-01T15:51:24;95118.59;;;6.14;59.87
12626;BME280;6378;42.684;23.372;2023-02-01T15:53:57;95107.59;;;6.15;59.69
12626;BME280;6378;42.684;23.372;2023-02-01T15:56:43;95120.94;;;6.06;60.33
12626;BME280;6378;42.684;23.372;2023-02-01T15:59:15;95115.44;;;6.12;59.43
12626;BME280;6378;42.684;23.372;2023-02-01T16:01:42;95123.78;;;6.10;60.89
12626;BME280;6378;42.684;23.372;2023-02-01T16:04:20;95120.34;;;6.01;60.77
12626;BME280;6378;42.684;23.372;2023-02-01T16:06:49;95118.75;;;6.00;60.19
12626;BME280;6378;42.684;23.372;2023-02-01T16:09:17;95126.78;;;6.08;59.94
12626;BME280;6378;42.684;23.372;2023-02-01T16:11:52;95137.91;;;6.02;60.37
12626;BME280;6378;42.684;23.372;2023-02-01T16:14:18;95148.31;;;6.03;59.91
12626;BME280;6378;42.684;23.372;2023-02-01T16:16:44;95084.94;;;5.70;59.52